Time;durP1;ratioP1;P1;durP2;ratioP2;P2;SDS_P1;SDS_P2;PMS_P1;PMS_P2;Temp;Humidity;BMP_temperature;BMP_pressure;BME280_temperature;BME280_humidity;BME280_pressure;Samples;Min_cycle;Max_cycle;Signal;HPM_P1;HPM_P2
2022/06/15 00:01:33;;;;;;;3.40;3.20;;;;;;;;;;5053392;28;20488;-51
2022/06/15 00:04:03;;;;;;;3.13;2.87;;;;;;;;;;5053139;28;20552;-52
2022/06/15 00:06:31;;;;;;;4.17;3.30;;;;;;;;;;5053265;28;20882;-52
2022/06/15 00:09:00;;;;;;;4.03;3.03;;;;;;;;;;5053021;28;20449;-52
2022/06/15 00:11:28;;;;;;;3.33;3.03;;;;;;;;;;5053587;28;20429;-53
2022/06/15 00:13:56;;;;;;;4.37;3.17;;;;;;;;;;5053173;28;20505;-49
2022/06/15 00:16:23;;;;;;;3.40;2.67;;;;;;;;;;5053151;28;20775;-53
2022/06/15 00:18:51;;;;;;;3.43;3.03;;;;;;;;;;5053071;28;20535;-49
2022/06/15 00:21:20;;;;;;;3.27;3.07;;;;;;;;;;5052943;28;20464;-50
2022/06/15 00:23:48;;;;;;;3.70;2.80;;;;;;;;;;5052794;28;20832;-49
2022/06/15 00:26:15;;;;;;;3.63;3.10;;;;;;;;;;5053091;28;20430;-50
2022/06/15 00:28:42;;;;;;;5.40;3.50;;;;;;;;;;5052920;28;20448;-51
2022/06/15 00:31:10;;;;;;;7.80;3.20;;;;;;;;;;5052889;28;20434;-51
2022/06/15 00:33:37;;;;;;;4.37;3.17;;;;;;;;;;5052826;28;20432;-49
2022/06/15 00:36:05;;;;;;;3.60;3.00;;;;;;;;;;5052700;28;20429;-54
2022/06/15 00:38:35;;;;;;;2.70;2.47;;;;;;;;;;5052773;28;20923;-51
2022/06/15 00:41:02;;;;;;;4.23;2.90;;;;;;;;;;5052907;28;20790;-52
2022/06/15 00:43:35;;;;;;;4.63;2.73;;;;;;;;;;5052561;28;20473;-50
2022/06/15 00:46:03;;;;;;;9.70;4.50;;;;;;;;;;5052759;28;20456;-53
2022/06/15 00:48:30;;;;;;;3.13;2.93;;;;;;;;;;5052588;28;20430;-51
2022/06/15 00:50:57;;;;;;;5.47;3.87;;;;;;;;;;5052811;28;20455;-49
2022/06/15 00:53:24;;;;;;;5.93;3.30;;;;;;;;;;5052767;28;20422;-52
2022/06/15 00:55:52;;;;;;;4.73;2.87;;;;;;;;;;5052706;28;20807;-54
2022/06/15 00:58:19;;;;;;;3.83;3.53;;;;;;;;;;5052587;28;20457;-51
2022/06/15 01:00:47;;;;;;;4.80;3.13;;;;;;;;;;5052516;28;21040;-50
2022/06/15 01:03:14;;;;;;;3.37;3.00;;;;;;;;;;5052555;28;20446;-50
2022/06/15 01:05:44;;;;;;;5.83;3.20;;;;;;;;;;5052601;28;20461;-51
2022/06/15 01:08:16;;;;;;;5.03;3.87;;;;;;;;;;5052641;28;20458;-49
2022/06/15 01:10:53;;;;;;;3.10;2.90;;;;;;;;;;5052633;28;20476;-49
2022/06/15 01:13:31;;;;;;;4.10;3.47;;;;;;;;;;5052345;28;21013;-50
2022/06/15 01:16:01;;;;;;;6.00;3.50;;;;;;;;;;5052663;28;20445;-55
2022/06/15 01:18:34;;;;;;;4.50;3.50;;;;;;;;;;5052508;28;20426;-52
2022/06/15 01:21:08;;;;;;;3.80;3.40;;;;;;;;;;5054128;28;21031;-54
2022/06/15 01:23:50;;;;;;;3.50;3.17;;;;;;;;;;5056178;28;20458;-50
2022/06/15 01:26:27;;;;;;;2.87;2.63;;;;;;;;;;5056458;28;20448;-49
2022/06/15 01:28:55;;;;;;;3.83;3.23;;;;;;;;;;5056355;28;20906;-51
2022/06/15 01:31:29;;;;;;;5.60;3.70;;;;;;;;;;5056177;28;20423;-52
2022/06/15 01:34:02;;;;;;;6.50;3.67;;;;;;;;;;5056085;28;20492;-51
2022/06/15 01:36:31;;;;;;;3.50;2.90;;;;;;;;;;5056000;28;20535;-49
2022/06/15 01:39:00;;;;;;;3.47;3.17;;;;;;;;;;5056095;28;20448;-51
2022/06/15 01:41:31;;;;;;;3.80;3.50;;;;;;;;;;5056061;28;20457;-53
2022/06/15 01:43:59;;;;;;;3.70;3.40;;;;;;;;;;5055784;28;20486;-54
2022/06/15 01:46:28;;;;;;;4.83;3.57;;;;;;;;;;5055850;28;20478;-52
2022/06/15 01:48:56;;;;;;;3.83;3.37;;;;;;;;;;5055733;28;20454;-53
2022/06/15 01:51:24;;;;;;;3.67;3.37;;;;;;;;;;5055911;28;20421;-51
2022/06/15 01:53:53;;;;;;;3.70;3.33;;;;;;;;;;5055808;28;20425;-50
2022/06/15 01:56:22;;;;;;;5.07;3.03;;;;;;;;;;5055681;28;20450;-52
2022/06/15 01:58:52;;;;;;;3.00;2.80;;;;;;;;;;5055608;28;20451;-50
2022/06/15 02:01:21;;;;;;;5.77;3.53;;;;;;;;;;5055408;28;20452;-49
2022/06/15 02:03:55;;;;;;;3.60;3.40;;;;;;;;;;5055560;28;20430;-49
2022/06/15 02:06:29;;;;;;;4.87;3.80;;;;;;;;;;5055574;28;20475;-49
2022/06/15 02:08:59;;;;;;;3.87;3.37;;;;;;;;;;5055492;28;20550;-55
2022/06/15 02:11:31;;;;;;;3.70;3.40;;;;;;;;;;5055373;28;20466;-49
2022/06/15 02:14:00;;;;;;;8.33;3.80;;;;;;;;;;5055245;28;20458;-50
2022/06/15 02:16:29;;;;;;;3.40;3.20;;;;;;;;;;5055407;28;20462;-51
2022/06/15 02:18:58;;;;;;;3.13;2.93;;;;;;;;;;5055317;28;20452;-51
2022/06/15 02:21:26;;;;;;;5.33;3.27;;;;;;;;;;5055233;28;20423;-51
2022/06/15 02:23:56;;;;;;;3.03;2.83;;;;;;;;;;5055030;28;20434;-49
2022/06/15 02:26:25;;;;;;;3.80;3.40;;;;;;;;;;5054925;28;20456;-52
2022/06/15 02:28:53;;;;;;;3.47;3.17;;;;;;;;;;5055279;28;20449;-50
2022/06/15 02:31:20;;;;;;;4.60;4.00;;;;;;;;;;5054821;28;20429;-52
2022/06/15 02:33:49;;;;;;;3.93;3.63;;;;;;;;;;5054957;28;20445;-50
2022/06/15 02:36:17;;;;;;;4.10;3.80;;;;;;;;;;5055032;28;20448;-50
2022/06/15 02:38:46;;;;;;;4.13;3.33;;;;;;;;;;5054813;28;20803;-50
2022/06/15 02:41:13;;;;;;;6.10;4.30;;;;;;;;;;5054725;28;20423;-56
2022/06/15 02:43:41;;;;;;;3.10;2.90;;;;;;;;;;5054776;28;20507;-50
2022/06/15 02:46:09;;;;;;;4.10;3.70;;;;;;;;;;5054696;28;20465;-49
2022/06/15 02:48:37;;;;;;;3.80;3.50;;;;;;;;;;5054717;28;20422;-50
2022/06/15 02:51:06;;;;;;;4.30;3.50;;;;;;;;;;5054503;28;20459;-48
2022/06/15 02:53:35;;;;;;;5.43;3.57;;;;;;;;;;5054451;28;20837;-54
2022/06/15 02:56:03;;;;;;;4.13;3.60;;;;;;;;;;5054630;28;20427;-53
2022/06/15 02:58:32;;;;;;;4.13;3.50;;;;;;;;;;5054555;28;20444;-50
2022/06/15 03:00:59;;;;;;;4.33;3.30;;;;;;;;;;5054477;28;20425;-50
2022/06/15 03:03:27;;;;;;;5.00;4.00;;;;;;;;;;5054364;28;21010;-50
2022/06/15 03:05:54;;;;;;;3.93;3.63;;;;;;;;;;5054144;28;20461;-55
2022/06/15 03:08:21;;;;;;;5.07;4.00;;;;;;;;;;5054452;28;20603;-50
2022/06/15 03:10:51;;;;;;;4.23;3.80;;;;;;;;;;5054341;28;20528;-50
2022/06/15 03:13:19;;;;;;;4.17;3.60;;;;;;;;;;5054336;28;20513;-51
2022/06/15 03:15:46;;;;;;;3.40;3.20;;;;;;;;;;5054175;28;20429;-51
2022/06/15 03:18:13;;;;;;;3.73;3.50;;;;;;;;;;5054067;28;20543;-50
2022/06/15 03:20:40;;;;;;;3.13;2.83;;;;;;;;;;5053918;28;20454;-51
2022/06/15 03:23:07;;;;;;;3.37;3.10;;;;;;;;;;5054133;28;20790;-50
2022/06/15 03:25:35;;;;;;;3.83;3.53;;;;;;;;;;5053952;28;20458;-52
2022/06/15 03:28:04;;;;;;;4.03;3.60;;;;;;;;;;5053924;28;20426;-54
2022/06/15 03:30:31;;;;;;;4.27;3.20;;;;;;;;;;5053822;28;20449;-52
2022/06/15 03:32:58;;;;;;;8.50;3.80;;;;;;;;;;5053659;28;20454;-50
2022/06/15 03:35:34;;;;;;;8.17;4.47;;;;;;;;;;5053863;28;20425;-50
2022/06/15 03:38:01;;;;;;;6.00;4.20;;;;;;;;;;5053781;28;20426;-53
2022/06/15 03:40:27;;;;;;;4.30;3.90;;;;;;;;;;5054133;28;20532;-55
2022/06/15 03:42:54;;;;;;;5.43;3.53;;;;;;;;;;5053397;28;20571;-50
2022/06/15 03:45:23;;;;;;;4.33;3.93;;;;;;;;;;5053500;28;20463;-52
2022/06/15 03:47:50;;;;;;;4.57;4.17;;;;;;;;;;5053487;28;20514;-50
2022/06/15 03:50:17;;;;;;;8.40;3.73;;;;;;;;;;5053578;28;20452;-49
2022/06/15 03:52:44;;;;;;;4.30;3.80;;;;;;;;;;5053355;28;20882;-53
2022/06/15 03:55:11;;;;;;;4.43;4.13;;;;;;;;;;5053414;28;20433;-55
2022/06/15 03:57:38;;;;;;;5.53;3.40;;;;;;;;;;5053302;28;20789;-54
2022/06/15 04:00:05;;;;;;;4.73;3.50;;;;;;;;;;5053222;28;20430;-53
2022/06/15 04:02:34;;;;;;;6.60;3.70;;;;;;;;;;5053401;28;20444;-49
2022/06/15 04:05:02;;;;;;;7.63;4.00;;;;;;;;;;5053223;28;20472;-52
2022/06/15 04:10:14;;;;;;;4.90;4.00;;;;;;;;;;5053425;28;20852;-51
2022/06/15 04:12:42;;;;;;;7.57;4.93;;;;;;;;;;5052985;28;20452;-49
2022/06/15 04:15:10;;;;;;;10.80;4.67;;;;;;;;;;5053253;28;20791;-53
2022/06/15 04:17:37;;;;;;;7.53;4.57;;;;;;;;;;5053149;28;20450;-49
2022/06/15 04:22:51;;;;;;;5.90;4.40;;;;;;;;;;5053167;28;20418;-53
2022/06/15 04:25:18;;;;;;;4.53;4.13;;;;;;;;;;5052791;28;20848;-53
2022/06/15 04:27:45;;;;;;;4.40;4.00;;;;;;;;;;5052952;28;20518;-56
2022/06/15 04:30:13;;;;;;;4.40;3.80;;;;;;;;;;5052955;28;20455;-55
2022/06/15 04:32:40;;;;;;;5.80;4.30;;;;;;;;;;5052925;28;20807;-53
2022/06/15 04:35:09;;;;;;;6.90;4.83;;;;;;;;;;5052749;28;20448;-51
2022/06/15 04:37:37;;;;;;;4.57;4.13;;;;;;;;;;5052919;28;20422;-55
2022/06/15 04:40:04;;;;;;;6.10;4.10;;;;;;;;;;5052894;28;20419;-51
2022/06/15 04:42:31;;;;;;;4.83;4.43;;;;;;;;;;5052377;28;20479;-52
2022/06/15 04:44:58;;;;;;;4.93;4.17;;;;;;;;;;5052911;28;20495;-50
2022/06/15 04:47:25;;;;;;;4.37;3.60;;;;;;;;;;5052713;28;20914;-50
2022/06/15 04:49:52;;;;;;;5.67;3.47;;;;;;;;;;5053214;28;20423;-54
2022/06/15 04:52:20;;;;;;;3.60;3.30;;;;;;;;;;5052384;28;20420;-56
2022/06/15 04:54:47;;;;;;;3.87;3.33;;;;;;;;;;5052808;28;20462;-53
2022/06/15 04:57:14;;;;;;;4.17;3.77;;;;;;;;;;5056475;28;20452;-56
2022/06/15 04:59:42;;;;;;;5.10;3.53;;;;;;;;;;5056761;28;20521;-53
2022/06/15 05:02:09;;;;;;;5.40;3.70;;;;;;;;;;5056629;28;20846;-51
2022/06/15 05:04:36;;;;;;;3.77;3.47;;;;;;;;;;5056425;28;20922;-54
2022/06/15 05:07:03;;;;;;;3.73;3.40;;;;;;;;;;5056265;28;21022;-49
2022/06/15 05:09:31;;;;;;;4.13;3.70;;;;;;;;;;5056507;28;20535;-53
2022/06/15 05:11:58;;;;;;;3.60;3.30;;;;;;;;;;5056511;28;20797;-55
2022/06/15 05:14:25;;;;;;;7.63;2.90;;;;;;;;;;5056461;28;20514;-51
2022/06/15 05:16:52;;;;;;;4.30;2.87;;;;;;;;;;5056598;28;20448;-54
2022/06/15 05:19:19;;;;;;;4.03;2.60;;;;;;;;;;5056217;28;20458;-53
2022/06/15 05:21:46;;;;;;;11.33;2.70;;;;;;;;;;5056347;28;20436;-54
2022/06/15 05:24:14;;;;;;;2.83;2.53;;;;;;;;;;5056340;28;20807;-55
2022/06/15 05:26:42;;;;;;;3.80;2.60;;;;;;;;;;5056157;28;20496;-52
2022/06/15 05:29:09;;;;;;;4.23;2.47;;;;;;;;;;5056030;28;20444;-55
2022/06/15 05:31:36;;;;;;;4.60;2.27;;;;;;;;;;5055874;28;20807;-55
2022/06/15 05:34:03;;;;;;;2.43;1.90;;;;;;;;;;5056028;28;20464;-53
2022/06/15 05:36:31;;;;;;;3.80;1.97;;;;;;;;;;5055971;28;20944;-52
2022/06/15 05:38:58;;;;;;;2.07;1.90;;;;;;;;;;5055976;28;20538;-51
2022/06/15 05:41:26;;;;;;;3.83;2.40;;;;;;;;;;5055805;28;20543;-55
2022/06/15 05:43:55;;;;;;;10.60;2.73;;;;;;;;;;5055767;28;20487;-55
2022/06/15 05:46:24;;;;;;;4.47;2.50;;;;;;;;;;5055524;28;20480;-54
2022/06/15 05:48:51;;;;;;;7.97;2.20;;;;;;;;;;5055903;28;20452;-49
2022/06/15 05:51:18;;;;;;;4.90;2.20;;;;;;;;;;5056117;28;20458;-54
2022/06/15 05:53:45;;;;;;;5.40;2.10;;;;;;;;;;5055765;28;20458;-54
2022/06/15 05:56:12;;;;;;;3.50;2.10;;;;;;;;;;5055495;28;20448;-56
2022/06/15 05:58:39;;;;;;;5.47;1.90;;;;;;;;;;5055514;28;20935;-52
2022/06/15 06:01:11;;;;;;;4.07;1.90;;;;;;;;;;5055341;28;20448;-51
2022/06/15 06:03:39;;;;;;;2.47;2.27;;;;;;;;;;5055591;28;20454;-50
2022/06/15 06:06:06;;;;;;;2.00;1.60;;;;;;;;;;5054841;28;20480;-54
2022/06/15 06:08:33;;;;;;;2.90;2.53;;;;;;;;;;5055614;28;20451;-53
2022/06/15 06:11:00;;;;;;;6.23;2.30;;;;;;;;;;5055263;28;20514;-56
2022/06/15 06:13:27;;;;;;;5.60;2.00;;;;;;;;;;5055163;28;20539;-50
2022/06/15 06:15:55;;;;;;;2.73;1.97;;;;;;;;;;5055403;28;20448;-51
2022/06/15 06:18:23;;;;;;;5.33;2.30;;;;;;;;;;5055726;28;20460;-52
2022/06/15 06:20:50;;;;;;;5.00;2.00;;;;;;;;;;5055188;28;20876;-52
2022/06/15 06:23:17;;;;;;;3.60;1.97;;;;;;;;;;5055035;28;20448;-54
2022/06/15 06:25:47;;;;;;;5.77;2.17;;;;;;;;;;5054659;28;20477;-55
2022/06/15 06:28:20;;;;;;;2.73;2.53;;;;;;;;;;5054822;28;20456;-53
2022/06/15 06:30:47;;;;;;;2.77;2.10;;;;;;;;;;5055322;28;20479;-53
2022/06/15 06:33:14;;;;;;;5.13;2.00;;;;;;;;;;5054913;28;20777;-52
2022/06/15 06:35:42;;;;;;;3.77;2.20;;;;;;;;;;5054856;28;20781;-53
2022/06/15 06:38:09;;;;;;;4.40;1.60;;;;;;;;;;5054764;28;20440;-49
2022/06/15 06:40:36;;;;;;;2.67;1.77;;;;;;;;;;5054552;28;20451;-54
2022/06/15 06:43:03;;;;;;;2.90;1.83;;;;;;;;;;5054541;28;20464;-54
2022/06/15 06:45:30;;;;;;;2.90;1.70;;;;;;;;;;5054852;28;20480;-54
2022/06/15 06:48:00;;;;;;;4.00;1.63;;;;;;;;;;5054416;28;20566;-53
2022/06/15 06:50:26;;;;;;;2.13;1.87;;;;;;;;;;5054384;28;20444;-53
2022/06/15 06:52:55;;;;;;;4.07;1.30;;;;;;;;;;5054292;28;20476;-56
2022/06/15 06:55:24;;;;;;;2.03;1.43;;;;;;;;;;5054205;28;20450;-53
2022/06/15 06:57:54;;;;;;;3.20;1.13;;;;;;;;;;5054329;28;20806;-55
2022/06/15 07:00:21;;;;;;;4.60;1.30;;;;;;;;;;5054401;28;20451;-55
2022/06/15 07:02:48;;;;;;;2.33;1.70;;;;;;;;;;5054221;28;20448;-56
2022/06/15 07:05:15;;;;;;;2.33;1.40;;;;;;;;;;5054501;28;20531;-55
2022/06/15 07:07:42;;;;;;;2.97;1.90;;;;;;;;;;5054198;28;20444;-54
2022/06/15 07:10:11;;;;;;;2.93;1.43;;;;;;;;;;5054286;28;20895;-56
2022/06/15 07:12:38;;;;;;;3.47;1.20;;;;;;;;;;5054319;28;20441;-56
2022/06/15 07:15:06;;;;;;;2.90;1.40;;;;;;;;;;5054098;28;20448;-54
2022/06/15 07:17:33;;;;;;;1.53;1.07;;;;;;;;;;5053646;28;20451;-53
2022/06/15 07:20:00;;;;;;;1.87;1.03;;;;;;;;;;5053483;28;20444;-52
2022/06/15 07:22:26;;;;;;;2.37;1.27;;;;;;;;;;5054470;28;20451;-54
2022/06/15 07:24:53;;;;;;;2.70;1.50;;;;;;;;;;5053101;28;20538;-54
2022/06/15 07:27:22;;;;;;;3.43;1.63;;;;;;;;;;5053997;28;20255;-49
2022/06/15 07:29:49;;;;;;;1.92;1.20;;;;;;;;;;5053476;28;20917;-51
2022/06/15 07:32:16;;;;;;;2.10;1.10;;;;;;;;;;5053707;28;20186;-54
2022/06/15 07:34:43;;;;;;;2.40;1.50;;;;;;;;;;5052532;28;20456;-52
2022/06/15 07:37:11;;;;;;;1.67;1.33;;;;;;;;;;5053775;28;20869;-52
2022/06/15 07:39:38;;;;;;;3.05;1.40;;;;;;;;;;5053256;28;20458;-50
2022/06/15 07:42:06;;;;;;;2.03;1.27;;;;;;;;;;5053549;28;20200;-52
2022/06/15 07:44:35;;;;;;;8.00;1.77;;;;;;;;;;5053301;28;20476;-50
2022/06/15 07:49:56;;;;;;;2.17;1.47;;;;;;;;;;5053214;28;20439;-50
2022/06/15 07:52:23;;;;;;;2.20;1.30;;;;;;;;;;5053568;28;20467;-50
2022/06/15 07:54:50;;;;;;;1.83;1.30;;;;;;;;;;5053352;28;20455;-51
2022/06/15 07:57:17;;;;;;;3.63;1.50;;;;;;;;;;5053058;28;20943;-50
2022/06/15 07:59:45;;;;;;;2.10;1.50;;;;;;;;;;5052965;28;20444;-53
2022/06/15 08:02:12;;;;;;;2.30;1.43;;;;;;;;;;5047132;28;20467;-47
2022/06/15 08:04:39;;;;;;;3.00;1.30;;;;;;;;;;5049639;28;20535;-56
2022/06/15 08:07:07;;;;;;;3.87;1.30;;;;;;;;;;5056053;28;20559;-50
2022/06/15 08:09:35;;;;;;;2.50;1.43;;;;;;;;;;5052695;28;20454;-49
2022/06/15 08:12:15;;;;;;;3.63;1.33;;;;;;;;;;5052987;28;20793;-58
2022/06/15 08:14:44;;;;;;;3.57;1.50;;;;;;;;;;5052180;28;20443;-50
2022/06/15 08:17:13;;;;;;;1.27;1.17;;;;;;;;;;5037473;28;20453;-53
2022/06/15 08:19:42;;;;;;;2.10;1.20;;;;;;;;;;5032939;28;20456;-56
2022/06/15 08:22:11;;;;;;;4.60;1.80;;;;;;;;;;5044746;28;20907;-57
2022/06/15 08:24:38;;;;;;;3.00;1.30;;;;;;;;;;5051040;28;20538;-52
2022/06/15 08:27:05;;;;;;;3.03;1.40;;;;;;;;;;5051709;28;20479;-58
2022/06/15 08:29:33;;;;;;;5.50;1.47;;;;;;;;;;5051597;28;20985;-59
2022/06/15 08:32:00;;;;;;;1.53;1.30;;;;;;;;;;5049358;28;20456;-56
2022/06/15 08:34:29;;;;;;;2.90;1.60;;;;;;;;;;5045252;28;20454;-51
2022/06/15 08:36:56;;;;;;;3.67;1.50;;;;;;;;;;5034646;28;20972;-57
2022/06/15 08:39:23;;;;;;;2.30;1.20;;;;;;;;;;5032534;28;20813;-56
2022/06/15 08:41:54;;;;;;;2.37;1.30;;;;;;;;;;5040346;28;20452;-52
2022/06/15 08:44:28;;;;;;;2.27;1.43;;;;;;;;;;5039503;28;21032;-58
2022/06/15 08:46:58;;;;;;;2.70;1.60;;;;;;;;;;5049135;28;20476;-58
2022/06/15 08:49:31;;;;;;;1.63;1.30;;;;;;;;;;5052524;28;20777;-57
2022/06/15 08:51:59;;;;;;;6.03;1.37;;;;;;;;;;5038534;28;20453;-59
2022/06/15 08:54:28;;;;;;;3.27;1.60;;;;;;;;;;5032727;28;20456;-58
2022/06/15 08:56:59;;;;;;;4.73;1.50;;;;;;;;;;5032405;28;20968;-55
2022/06/15 08:59:29;;;;;;;1.73;1.30;;;;;;;;;;5048818;28;20456;-53
2022/06/15 09:01:59;;;;;;;4.00;1.40;;;;;;;;;;5049510;28;20444;-57
2022/06/15 09:04:33;;;;;;;3.63;1.73;;;;;;;;;;5052318;28;20455;-58
2022/06/15 09:07:08;;;;;;;2.63;1.40;;;;;;;;;;5051035;28;20839;-57
2022/06/15 09:09:43;;;;;;;3.93;1.90;;;;;;;;;;5051271;28;20440;-59
2022/06/15 09:15:08;;;;;;;3.70;1.63;;;;;;;;;;5052414;28;20859;-59
2022/06/15 09:17:35;;;;;;;2.90;1.37;;;;;;;;;;5052455;28;20885;-55
2022/06/15 09:20:11;;;;;;;1.73;1.53;;;;;;;;;;5052316;28;20484;-51
2022/06/15 09:22:41;;;;;;;3.83;1.90;;;;;;;;;;5049932;28;20803;-49
2022/06/15 09:25:12;;;;;;;2.50;1.57;;;;;;;;;;5052052;28;20440;-57
2022/06/15 09:27:40;;;;;;;2.50;1.70;;;;;;;;;;5052310;28;20545;-56
2022/06/15 09:30:09;;;;;;;2.37;2.17;;;;;;;;;;5050000;28;20931;-58
2022/06/15 09:32:38;;;;;;;4.40;1.57;;;;;;;;;;5052030;28;20440;-60
2022/06/15 09:35:11;;;;;;;2.23;1.73;;;;;;;;;;5051809;28;20445;-54
2022/06/15 09:37:40;;;;;;;3.27;1.67;;;;;;;;;;5051839;28;20448;-50
2022/06/15 09:40:08;;;;;;;3.20;1.60;;;;;;;;;;5040594;28;20859;-50
2022/06/15 09:42:39;;;;;;;2.47;1.50;;;;;;;;;;5053094;28;20788;-58
2022/06/15 09:45:09;;;;;;;2.67;1.48;;;;;;;;;;5054079;28;20457;-59
2022/06/15 09:47:41;;;;;;;3.83;1.97;;;;;;;;;;5055712;28;20228;-58
2022/06/15 09:50:15;;;;;;;3.87;1.70;;;;;;;;;;5055495;28;20456;-58
2022/06/15 09:52:54;;;;;;;3.63;1.50;;;;;;;;;;5055875;28;20471;-57
2022/06/15 09:55:25;;;;;;;4.07;1.50;;;;;;;;;;5053775;28;20447;-59
2022/06/15 09:57:53;;;;;;;2.63;1.30;;;;;;;;;;5055631;28;20454;-54
2022/06/15 10:00:20;;;;;;;4.00;1.87;;;;;;;;;;5052604;28;20455;-58
2022/06/15 10:02:49;;;;;;;3.30;1.50;;;;;;;;;;5055243;28;20455;-56
2022/06/15 10:05:22;;;;;;;3.37;1.77;;;;;;;;;;5066056;28;20454;-52
2022/06/15 10:07:49;;;;;;;3.47;1.70;;;;;;;;;;5057208;28;20484;-57
2022/06/15 10:10:18;;;;;;;1.90;1.50;;;;;;;;;;5043593;28;20455;-59
2022/06/15 10:12:59;;;;;;;6.33;1.60;;;;;;;;;;5035283;28;20514;-60
2022/06/15 10:15:32;;;;;;;2.60;1.70;;;;;;;;;;5040139;28;20459;-61
2022/06/15 10:18:01;;;;;;;2.57;1.50;;;;;;;;;;5038316;28;20471;-61
2022/06/15 10:20:31;;;;;;;4.53;2.50;;;;;;;;;;5035128;28;20480;-61
2022/06/15 10:22:59;;;;;;;1.97;1.63;;;;;;;;;;5043123;28;20448;-59
2022/06/15 10:25:35;;;;;;;1.90;1.20;;;;;;;;;;5054525;28;20543;-59
2022/06/15 10:28:14;;;;;;;3.97;1.67;;;;;;;;;;5053841;28;20529;-59
2022/06/15 10:30:50;;;;;;;2.10;1.50;;;;;;;;;;5034928;28;20721;-58
2022/06/15 10:33:20;;;;;;;2.80;1.77;;;;;;;;;;5044750;28;20539;-58
2022/06/15 10:35:52;;;;;;;3.43;1.47;;;;;;;;;;5054768;28;20451;-56
2022/06/15 10:38:19;;;;;;;3.65;1.80;;;;;;;;;;5040062;28;20547;-53
2022/06/15 10:40:55;;;;;;;2.83;1.60;;;;;;;;;;5054143;28;20697;-50
2022/06/15 10:43:25;;;;;;;3.80;1.90;;;;;;;;;;5053872;28;20848;-54
2022/06/15 10:45:58;;;;;;;3.93;2.07;;;;;;;;;;5053107;28;20511;-52
2022/06/15 10:48:29;;;;;;;1.63;1.30;;;;;;;;;;5053907;28;20480;-60
2022/06/15 10:51:00;;;;;;;6.10;1.63;;;;;;;;;;5054267;28;20452;-59
2022/06/15 10:53:32;;;;;;;6.40;2.30;;;;;;;;;;5049830;28;20531;-58
2022/06/15 11:04:25;;;;;;;3.30;1.43;;;;;;;;;;5042254;28;20476;-56
2022/06/15 11:06:55;;;;;;;3.80;1.57;;;;;;;;;;5053150;28;20514;-60
2022/06/15 11:09:26;;;;;;;4.88;2.00;;;;;;;;;;5052297;28;20963;-60
2022/06/15 11:11:53;;;;;;;3.47;1.60;;;;;;;;;;5053843;28;20456;-59
2022/06/15 11:14:24;;;;;;;5.47;2.20;;;;;;;;;;5052830;28;20225;-59
2022/06/15 11:19:40;;;;;;;4.07;1.70;;;;;;;;;;5051033;28;20848;-57
2022/06/15 11:22:09;;;;;;;3.20;1.30;;;;;;;;;;5053602;28;20521;-55
2022/06/15 11:24:39;;;;;;;4.77;2.43;;;;;;;;;;5053647;28;20447;-56
2022/06/15 11:27:09;;;;;;;3.90;1.37;;;;;;;;;;5052843;28;20563;-57
2022/06/15 11:29:44;;;;;;;2.43;1.50;;;;;;;;;;5052116;28;20543;-56
2022/06/15 11:32:17;;;;;;;5.87;2.00;;;;;;;;;;5053562;28;20744;-56
2022/06/15 11:34:47;;;;;;;2.07;1.77;;;;;;;;;;5053308;28;20448;-56
2022/06/15 11:37:18;;;;;;;1.93;1.33;;;;;;;;;;5052191;28;20535;-51
2022/06/15 11:39:50;;;;;;;2.03;1.70;;;;;;;;;;5050929;28;20456;-56
2022/06/15 11:42:18;;;;;;;4.73;1.43;;;;;;;;;;5038257;28;20453;-49
2022/06/15 11:44:45;;;;;;;2.37;1.63;;;;;;;;;;5052276;28;20452;-49
2022/06/15 11:47:18;;;;;;;3.27;1.37;;;;;;;;;;5059373;28;20562;-50
2022/06/15 11:49:48;;;;;;;1.87;1.53;;;;;;;;;;5052057;28;20448;-50
2022/06/15 11:52:22;;;;;;;2.60;1.67;;;;;;;;;;5053285;28;20446;-48
2022/06/15 11:55:15;;;;;;;3.63;2.00;;;;;;;;;;5053344;28;20436;-53
2022/06/15 11:57:46;;;;;;;2.70;1.50;;;;;;;;;;5052168;28;20459;-55
2022/06/15 12:00:18;;;;;;;1.87;1.77;;;;;;;;;;5051263;28;20452;-54
2022/06/15 12:02:57;;;;;;;1.90;1.60;;;;;;;;;;5053137;28;20898;-53
2022/06/15 12:05:31;;;;;;;3.83;1.60;;;;;;;;;;5065674;28;20509;-54
2022/06/15 12:08:07;;;;;;;3.30;1.53;;;;;;;;;;5049659;28;20516;-55
2022/06/15 12:10:38;;;;;;;2.30;1.63;;;;;;;;;;5051134;28;20535;-53
2022/06/15 12:13:09;;;;;;;2.33;1.63;;;;;;;;;;5052885;28;20472;-53
2022/06/15 12:15:40;;;;;;;5.07;2.57;;;;;;;;;;5051191;28;20717;-54
2022/06/15 12:18:16;;;;;;;3.30;1.67;;;;;;;;;;5052826;28;20785;-54
2022/06/15 12:20:49;;;;;;;2.37;1.80;;;;;;;;;;5059314;28;20553;-56
2022/06/15 12:23:23;;;;;;;4.17;1.57;;;;;;;;;;5051494;28;20452;-55
2022/06/15 12:25:54;;;;;;;2.17;1.67;;;;;;;;;;5052124;28;20458;-56
2022/06/15 12:28:26;;;;;;;3.33;1.47;;;;;;;;;;5052891;28;20479;-56
2022/06/15 12:30:56;;;;;;;2.83;1.60;;;;;;;;;;5053072;28;20462;-56
2022/06/15 12:33:25;;;;;;;1.97;1.43;;;;;;;;;;5053057;28;20539;-56
2022/06/15 12:35:56;;;;;;;3.23;1.97;;;;;;;;;;5052568;28;21017;-56
2022/06/15 12:38:27;;;;;;;2.33;1.43;;;;;;;;;;5052800;28;20789;-54
2022/06/15 12:40:59;;;;;;;3.13;1.90;;;;;;;;;;5052713;28;20539;-56
2022/06/15 12:43:32;;;;;;;3.80;2.07;;;;;;;;;;5052656;28;20911;-54
2022/06/15 12:46:04;;;;;;;9.23;1.90;;;;;;;;;;5052845;28;20455;-55
2022/06/15 12:48:34;;;;;;;2.33;1.30;;;;;;;;;;5052786;28;20479;-56
2022/06/15 12:51:04;;;;;;;2.43;1.60;;;;;;;;;;5052830;28;20456;-56
2022/06/15 12:53:39;;;;;;;2.47;1.80;;;;;;;;;;5052591;28;20464;-55
2022/06/15 12:56:16;;;;;;;3.47;1.70;;;;;;;;;;5052749;28;20459;-56
2022/06/15 12:58:49;;;;;;;1.50;1.30;;;;;;;;;;5052719;28;20815;-57
2022/06/15 13:01:20;;;;;;;3.33;1.70;;;;;;;;;;5052550;28;20953;-56
2022/06/15 13:03:53;;;;;;;4.27;1.70;;;;;;;;;;5052366;28;20483;-56
2022/06/15 13:06:21;;;;;;;3.30;1.80;;;;;;;;;;5052803;28;20452;-58
2022/06/15 13:08:59;;;;;;;2.73;1.70;;;;;;;;;;5052534;28;20915;-54
2022/06/15 13:11:27;;;;;;;3.40;1.70;;;;;;;;;;5052475;28;20452;-56
2022/06/15 13:13:54;;;;;;;6.80;2.03;;;;;;;;;;5052366;28;20450;-55
2022/06/15 13:16:32;;;;;;;1.83;1.60;;;;;;;;;;5052898;28;20459;-57
2022/06/15 13:18:59;;;;;;;2.70;1.83;;;;;;;;;;5056432;28;20456;-56
2022/06/15 13:21:27;;;;;;;6.30;2.50;;;;;;;;;;5056311;28;20452;-56
2022/06/15 13:24:04;;;;;;;2.20;1.40;;;;;;;;;;5056101;28;20544;-55
2022/06/15 13:26:46;;;;;;;2.93;1.30;;;;;;;;;;5056021;28;20458;-56
2022/06/15 13:29:21;;;;;;;2.03;1.23;;;;;;;;;;5056179;28;20987;-55
2022/06/15 13:31:48;;;;;;;3.40;1.70;;;;;;;;;;5056250;28;20451;-56
2022/06/15 13:34:16;;;;;;;3.50;1.73;;;;;;;;;;5055994;28;20950;-56
2022/06/15 13:36:44;;;;;;;3.63;1.40;;;;;;;;;;5055968;28;20543;-56
2022/06/15 13:39:48;;;;;;;2.87;1.60;;;;;;;;;;5055850;28;20962;-54
2022/06/15 13:42:22;;;;;;;5.27;2.90;;;;;;;;;;5055979;28;20892;-56
2022/06/15 13:44:50;;;;;;;1.93;1.37;;;;;;;;;;5055861;28;20962;-56
2022/06/15 13:47:17;;;;;;;4.30;1.77;;;;;;;;;;5055725;28;20478;-55
2022/06/15 13:49:45;;;;;;;3.57;1.33;;;;;;;;;;5055552;28;20476;-56
2022/06/15 13:52:15;;;;;;;1.57;1.47;;;;;;;;;;5055801;28;20488;-56
2022/06/15 13:54:52;;;;;;;2.03;1.43;;;;;;;;;;5055768;28;20448;-56
2022/06/15 13:57:24;;;;;;;3.57;1.60;;;;;;;;;;5055475;28;20530;-55
2022/06/15 13:59:56;;;;;;;2.93;1.70;;;;;;;;;;5055590;28;20454;-57
2022/06/15 14:02:30;;;;;;;1.77;1.50;;;;;;;;;;5055458;28;20454;-56
2022/06/15 14:05:08;;;;;;;5.90;1.80;;;;;;;;;;5055621;28;20558;-56
2022/06/15 14:07:46;;;;;;;1.70;1.30;;;;;;;;;;5055286;28;20936;-56
2022/06/15 14:10:18;;;;;;;4.50;1.60;;;;;;;;;;5055378;28;20535;-57
2022/06/15 14:12:56;;;;;;;2.27;1.50;;;;;;;;;;5055354;28;20522;-56
2022/06/15 14:15:39;;;;;;;3.27;1.80;;;;;;;;;;5055435;28;20890;-57
2022/06/15 14:18:30;;;;;;;3.63;1.50;;;;;;;;;;5055353;28;20462;-56
2022/06/15 14:20:57;;;;;;;2.80;1.33;;;;;;;;;;5055210;28;20478;-57
2022/06/15 14:23:29;;;;;;;1.70;1.60;;;;;;;;;;5055000;28;20994;-55
2022/06/15 14:25:58;;;;;;;5.30;1.90;;;;;;;;;;5055122;28;20453;-56
2022/06/15 14:28:26;;;;;;;3.03;1.50;;;;;;;;;;5054594;28;20478;-56
2022/06/15 14:30:59;;;;;;;2.50;1.63;;;;;;;;;;5055037;28;20539;-55
2022/06/15 14:33:27;;;;;;;2.07;1.50;;;;;;;;;;5054904;28;20779;-56
2022/06/15 14:36:01;;;;;;;3.93;2.03;;;;;;;;;;5054958;28;20459;-56
2022/06/15 14:38:29;;;;;;;2.40;1.87;;;;;;;;;;5054893;28;20459;-55
2022/06/15 14:41:11;;;;;;;6.50;1.20;;;;;;;;;;5054912;28;20452;-56
2022/06/15 14:43:38;;;;;;;3.77;1.53;;;;;;;;;;5054562;28;20559;-57
2022/06/15 14:46:05;;;;;;;2.40;1.40;;;;;;;;;;5054569;28;20449;-55
2022/06/15 14:48:34;;;;;;;1.80;1.50;;;;;;;;;;5054727;28;20484;-56
2022/06/15 14:51:10;;;;;;;2.50;1.73;;;;;;;;;;5054765;28;20456;-57
2022/06/15 14:53:37;;;;;;;4.40;2.40;;;;;;;;;;5054644;28;20927;-56
2022/06/15 14:56:06;;;;;;;5.10;1.93;;;;;;;;;;5054299;28;21017;-53
2022/06/15 14:58:34;;;;;;;4.60;1.73;;;;;;;;;;5054367;28;20543;-55
2022/06/15 15:01:06;;;;;;;3.20;1.63;;;;;;;;;;5054545;28;20459;-56
2022/06/15 15:03:35;;;;;;;3.47;1.30;;;;;;;;;;5054448;28;20450;-56
2022/06/15 15:06:04;;;;;;;2.97;1.83;;;;;;;;;;5054340;28;20582;-56
2022/06/15 15:08:36;;;;;;;2.93;1.57;;;;;;;;;;5054274;28;20486;-57
2022/06/15 15:11:05;;;;;;;5.93;1.83;;;;;;;;;;5054213;28;20463;-56
2022/06/15 15:13:34;;;;;;;1.50;1.40;;;;;;;;;;5054299;28;20448;-56
2022/06/15 15:16:04;;;;;;;6.90;2.50;;;;;;;;;;5054245;28;20482;-56
2022/06/15 15:18:46;;;;;;;5.23;2.10;;;;;;;;;;5054175;28;20559;-56
2022/06/15 15:21:20;;;;;;;2.33;2.13;;;;;;;;;;5054074;28;20539;-58